createdAt,value
2017-07-17T00:00:06.171Z,2.70
2017-07-17T00:02:33.702Z,2.50
2017-07-17T00:05:02.045Z,2.50
2017-07-17T00:07:29.618Z,2.57
2017-07-17T00:09:57.218Z,2.50
2017-07-17T00:12:24.782Z,2.60
2017-07-17T00:14:52.327Z,2.50
2017-07-17T00:17:19.879Z,3.00
2017-07-17T00:19:47.452Z,2.07
2017-07-17T00:22:15.023Z,2.67
2017-07-17T00:24:42.601Z,2.70
2017-07-17T00:27:10.173Z,2.77
2017-07-17T00:29:37.730Z,2.47
2017-07-17T00:32:05.332Z,2.20
2017-07-17T00:34:32.909Z,2.40
2017-07-17T00:37:00.521Z,2.40
2017-07-17T00:39:28.057Z,2.20
2017-07-17T00:41:55.705Z,2.80
2017-07-17T00:44:23.293Z,2.13
2017-07-17T00:46:50.895Z,2.10
2017-07-17T00:49:18.494Z,2.00
2017-07-17T00:51:46.061Z,2.07
2017-07-17T00:54:13.741Z,2.33
2017-07-17T00:56:41.344Z,2.60
2017-07-17T00:59:08.917Z,2.50
2017-07-17T01:01:36.457Z,2.33
2017-07-17T01:04:04.078Z,2.20
2017-07-17T01:06:31.626Z,2.20
2017-07-17T01:08:59.185Z,2.40
2017-07-17T01:11:26.732Z,2.10
2017-07-17T01:13:54.337Z,2.40
2017-07-17T01:16:21.937Z,2.10
2017-07-17T01:18:49.495Z,2.50
2017-07-17T01:21:17.034Z,2.07
2017-07-17T01:23:45.362Z,2.20
2017-07-17T01:26:12.939Z,2.03
2017-07-17T01:28:40.494Z,2.43
2017-07-17T01:31:08.033Z,2.03
2017-07-17T01:33:35.614Z,2.43
2017-07-17T01:36:03.208Z,2.10
2017-07-17T01:38:31.518Z,1.93
2017-07-17T01:40:59.117Z,2.03
2017-07-17T01:43:26.664Z,1.93
2017-07-17T01:45:54.555Z,2.27
2017-07-17T01:48:22.089Z,2.00
2017-07-17T01:50:49.675Z,2.17
2017-07-17T01:53:18.029Z,2.07
2017-07-17T01:55:45.598Z,2.27
2017-07-17T01:58:13.131Z,2.13
2017-07-17T02:00:40.670Z,2.20
2017-07-17T02:03:08.244Z,2.30
2017-07-17T02:05:35.791Z,1.90
2017-07-17T02:08:03.383Z,2.33
2017-07-17T02:10:30.933Z,2.00
2017-07-17T02:12:58.507Z,2.20
2017-07-17T02:15:26.054Z,2.13
2017-07-17T02:17:53.648Z,1.80
2017-07-17T02:20:21.358Z,2.10
2017-07-17T02:22:48.928Z,2.23
2017-07-17T02:25:16.487Z,1.90
2017-07-17T02:27:44.062Z,2.07
2017-07-17T02:30:11.631Z,2.03
2017-07-17T02:32:39.256Z,2.20
2017-07-17T02:35:06.824Z,1.97
2017-07-17T02:37:34.407Z,1.80
2017-07-17T02:40:01.969Z,2.27
2017-07-17T02:42:29.555Z,1.97
2017-07-17T02:44:57.157Z,2.00
2017-07-17T02:47:24.719Z,2.20
2017-07-17T02:49:52.320Z,2.47
2017-07-17T02:52:19.859Z,2.10
2017-07-17T02:54:47.423Z,2.00
2017-07-17T02:57:14.964Z,2.03
2017-07-17T02:59:42.526Z,2.13
2017-07-17T03:02:10.095Z,2.10
2017-07-17T03:04:37.670Z,1.83
2017-07-17T03:07:05.263Z,2.13
2017-07-17T03:09:33.578Z,2.60
2017-07-17T03:12:01.109Z,2.30
2017-07-17T03:14:28.700Z,2.03
2017-07-17T03:16:56.338Z,2.33
2017-07-17T03:19:24.721Z,1.97
2017-07-17T03:21:52.315Z,2.10
2017-07-17T03:24:19.917Z,1.77
2017-07-17T03:26:47.459Z,1.90
2017-07-17T03:29:15.026Z,1.80
2017-07-17T03:31:42.624Z,2.17
2017-07-17T03:34:10.174Z,1.93
2017-07-17T03:36:37.824Z,1.83
2017-07-17T03:39:05.414Z,2.07
2017-07-17T03:41:32.993Z,2.33
2017-07-17T03:44:00.546Z,2.00
2017-07-17T03:46:28.167Z,2.10
2017-07-17T03:48:56.571Z,2.10
2017-07-17T03:51:24.144Z,2.03
2017-07-17T03:53:51.776Z,1.70
2017-07-17T03:56:19.337Z,2.30
2017-07-17T03:58:46.897Z,2.27
2017-07-17T04:01:14.574Z,1.80
2017-07-17T04:03:42.178Z,2.00
2017-07-17T04:06:09.713Z,2.00
2017-07-17T04:08:37.290Z,2.20
2017-07-17T04:11:04.849Z,2.20
2017-07-17T04:13:32.445Z,2.60
2017-07-17T04:15:59.998Z,2.43
2017-07-17T04:18:27.526Z,2.20
2017-07-17T04:20:55.084Z,1.90
2017-07-17T04:23:22.637Z,2.20
2017-07-17T04:25:50.176Z,2.13
2017-07-17T04:28:17.737Z,2.00
2017-07-17T04:30:45.314Z,1.93
2017-07-17T04:33:12.905Z,2.00
2017-07-17T04:35:40.455Z,1.90
2017-07-17T04:38:08.036Z,2.40
2017-07-17T04:40:36.382Z,2.53
2017-07-17T04:43:03.920Z,2.10
2017-07-17T04:45:31.487Z,2.13
2017-07-17T04:47:59.026Z,2.27
2017-07-17T04:50:26.578Z,2.10
2017-07-17T04:52:54.109Z,2.20
2017-07-17T04:55:22.413Z,2.73
2017-07-17T04:57:50.002Z,2.57
2017-07-17T05:00:17.581Z,2.43
2017-07-17T05:02:45.147Z,2.27
2017-07-17T05:05:12.683Z,2.60
2017-07-17T05:07:40.225Z,2.40
2017-07-17T05:10:07.902Z,2.33
2017-07-17T05:12:35.762Z,2.10
2017-07-17T05:15:03.324Z,2.30
2017-07-17T05:17:30.866Z,2.23
2017-07-17T05:19:58.455Z,2.17
2017-07-17T05:22:26.056Z,2.20
2017-07-17T05:24:53.637Z,2.23
2017-07-17T05:27:21.199Z,2.20
2017-07-17T05:29:48.757Z,1.70
2017-07-17T05:32:16.278Z,2.00
2017-07-17T05:34:43.821Z,2.13
2017-07-17T05:37:11.359Z,2.40
2017-07-17T05:39:38.906Z,2.17
2017-07-17T05:42:06.427Z,1.90
2017-07-17T05:44:34.003Z,2.00
2017-07-17T05:47:01.567Z,2.00
2017-07-17T05:49:29.086Z,2.13
2017-07-17T05:51:56.635Z,2.13
2017-07-17T05:54:24.161Z,1.80
2017-07-17T05:56:51.738Z,1.57
2017-07-17T05:59:19.263Z,2.30
2017-07-17T06:01:46.799Z,1.40
2017-07-17T06:04:14.330Z,1.80
2017-07-17T06:06:41.899Z,1.83
2017-07-17T06:09:09.481Z,1.53
2017-07-17T06:11:37.820Z,1.80
2017-07-17T06:14:06.161Z,1.57
2017-07-17T06:16:33.693Z,1.60
2017-07-17T06:19:01.261Z,1.90
2017-07-17T06:21:28.810Z,1.80
2017-07-17T06:23:56.539Z,1.80
2017-07-17T06:26:24.059Z,1.83
2017-07-17T06:28:51.609Z,1.73
2017-07-17T06:31:19.140Z,1.30
2017-07-17T06:33:46.682Z,2.17
2017-07-17T06:36:14.227Z,1.30
2017-07-17T06:38:41.784Z,1.70
2017-07-17T06:41:09.320Z,1.40
2017-07-17T06:43:36.885Z,1.20
2017-07-17T06:46:04.437Z,1.50
2017-07-17T06:48:32.030Z,1.40
2017-07-17T06:50:59.565Z,1.20
2017-07-17T06:53:27.093Z,1.20
2017-07-17T06:55:54.658Z,1.30
2017-07-17T06:58:22.181Z,1.70
2017-07-17T07:00:49.748Z,1.30
2017-07-17T07:03:17.287Z,1.50
2017-07-17T07:05:44.838Z,1.43
2017-07-17T07:08:12.398Z,1.23
2017-07-17T07:10:39.940Z,1.40
2017-07-17T07:13:07.478Z,1.00
2017-07-17T07:15:35.011Z,1.40
2017-07-17T07:18:02.561Z,1.20
2017-07-17T07:20:30.152Z,1.10
2017-07-17T07:22:57.701Z,1.10
2017-07-17T07:25:25.249Z,1.20
2017-07-17T07:27:52.796Z,1.40
2017-07-17T07:30:20.317Z,1.43
2017-07-17T07:32:47.924Z,1.30
2017-07-17T07:35:15.461Z,1.50
2017-07-17T07:37:43.021Z,1.63
2017-07-17T07:40:10.577Z,1.80
2017-07-17T07:42:38.161Z,1.10
2017-07-17T07:45:05.681Z,1.40
2017-07-17T07:47:33.240Z,1.50
2017-07-17T07:50:00.812Z,1.47
2017-07-17T07:52:28.396Z,1.23
2017-07-17T07:54:55.963Z,1.90
2017-07-17T07:57:23.502Z,1.80
2017-07-17T07:59:51.044Z,1.03
2017-07-17T08:02:18.590Z,0.90
2017-07-17T08:04:46.145Z,1.20
2017-07-17T08:07:13.680Z,1.53
2017-07-17T08:09:41.218Z,1.57
2017-07-17T08:12:08.754Z,1.47
2017-07-17T08:14:36.380Z,1.53
2017-07-17T08:17:03.904Z,1.30
2017-07-17T08:19:31.438Z,1.30
2017-07-17T08:21:58.988Z,1.33
2017-07-17T08:24:26.512Z,1.50
2017-07-17T08:26:54.077Z,1.40
2017-07-17T08:29:21.608Z,1.40
2017-07-17T08:31:49.160Z,1.10
2017-07-17T08:34:16.691Z,1.13
2017-07-17T08:36:44.229Z,1.47
2017-07-17T08:39:11.755Z,1.40
2017-07-17T08:41:39.289Z,1.40
2017-07-17T08:44:06.829Z,1.20
2017-07-17T08:46:34.395Z,1.20
2017-07-17T08:49:01.927Z,1.27
2017-07-17T08:51:29.470Z,0.97
2017-07-17T08:53:57.047Z,1.20
2017-07-17T08:56:24.585Z,1.10
2017-07-17T08:58:52.916Z,1.00
2017-07-17T09:01:20.442Z,1.00
2017-07-17T09:03:48.002Z,0.90
2017-07-17T09:06:15.599Z,1.40
2017-07-17T09:08:43.145Z,1.00
2017-07-17T09:11:10.669Z,1.23
2017-07-17T09:13:38.232Z,1.40
2017-07-17T09:16:05.757Z,0.90
2017-07-17T09:18:33.383Z,1.30
2017-07-17T09:21:00.974Z,1.40
2017-07-17T09:23:28.923Z,1.17
2017-07-17T09:25:56.462Z,1.40
2017-07-17T09:28:24.026Z,1.50
2017-07-17T09:30:51.553Z,0.90
2017-07-17T09:33:19.105Z,1.10
2017-07-17T09:35:46.733Z,0.90
2017-07-17T09:38:14.260Z,1.00
2017-07-17T09:40:41.808Z,1.20
2017-07-17T09:43:09.330Z,1.40
2017-07-17T09:45:36.865Z,1.00
2017-07-17T09:48:04.392Z,1.10
2017-07-17T09:50:31.956Z,1.00
2017-07-17T09:52:59.518Z,1.10
2017-07-17T09:55:27.073Z,1.00
2017-07-17T09:57:54.602Z,1.00
2017-07-17T10:00:22.195Z,1.00
2017-07-17T10:02:49.768Z,1.00
2017-07-17T10:05:17.297Z,1.50
2017-07-17T10:07:44.832Z,1.20
2017-07-17T10:10:12.358Z,1.30
2017-07-17T10:12:39.933Z,0.90
2017-07-17T10:15:07.453Z,1.07
2017-07-17T10:17:35.789Z,1.00
2017-07-17T10:20:03.303Z,1.10
2017-07-17T10:22:30.841Z,0.90
2017-07-17T10:24:58.625Z,0.80
2017-07-17T10:27:26.170Z,1.00
2017-07-17T10:29:53.689Z,1.23
2017-07-17T10:32:21.208Z,1.00
2017-07-17T10:34:48.762Z,0.93
2017-07-17T10:37:16.280Z,1.00
2017-07-17T10:39:43.835Z,0.90
2017-07-17T10:42:11.376Z,1.10
2017-07-17T10:44:38.924Z,1.07
2017-07-17T10:47:06.460Z,1.20
2017-07-17T10:49:34.001Z,1.17
2017-07-17T10:52:01.531Z,0.90
2017-07-17T10:54:29.115Z,0.80
2017-07-17T10:56:56.647Z,0.73
2017-07-17T10:59:24.181Z,0.83
2017-07-17T11:01:51.739Z,1.00
2017-07-17T11:04:19.349Z,1.23
2017-07-17T11:06:46.909Z,1.13
2017-07-17T11:09:14.484Z,1.00
2017-07-17T11:11:42.069Z,1.13
2017-07-17T11:14:09.641Z,1.00
2017-07-17T11:16:37.951Z,1.07
2017-07-17T11:19:05.496Z,1.10
2017-07-17T11:21:33.031Z,1.00
2017-07-17T11:24:00.549Z,1.00
2017-07-17T11:26:28.089Z,0.90
2017-07-17T11:28:55.611Z,0.70
2017-07-17T11:31:23.159Z,1.07
2017-07-17T11:33:51.464Z,1.00
2017-07-17T11:36:19.001Z,0.90
2017-07-17T11:38:46.540Z,0.90
2017-07-17T11:41:14.108Z,0.97
2017-07-17T11:43:46.166Z,1.10
2017-07-17T11:56:26.081Z,0.70
2017-07-17T11:58:55.107Z,0.90
2017-07-17T12:03:55.324Z,0.90
2017-07-17T12:11:34.363Z,0.80
2017-07-17T12:14:01.917Z,0.70
2017-07-17T12:16:29.461Z,0.93
2017-07-17T12:18:57.021Z,0.90
2017-07-17T12:21:24.567Z,0.80
2017-07-17T12:23:52.119Z,0.80
2017-07-17T12:26:19.655Z,0.90
2017-07-17T12:28:47.190Z,0.87
2017-07-17T12:31:14.751Z,0.70
2017-07-17T12:33:42.321Z,0.80
2017-07-17T12:36:09.879Z,0.83
2017-07-17T12:38:37.400Z,0.90
2017-07-17T12:41:04.933Z,0.80
2017-07-17T12:43:32.460Z,0.90
2017-07-17T12:46:00.010Z,0.80
2017-07-17T12:48:27.549Z,1.00
2017-07-17T12:50:55.095Z,0.90
2017-07-17T12:53:22.627Z,1.00
2017-07-17T12:55:50.153Z,1.10
2017-07-17T12:58:18.480Z,1.00
2017-07-17T13:00:46.033Z,0.90
2017-07-17T13:03:13.599Z,0.90
2017-07-17T13:05:41.137Z,0.80
2017-07-17T13:08:08.715Z,0.93
2017-07-17T13:10:36.230Z,1.10
2017-07-17T13:13:03.756Z,0.80
2017-07-17T13:15:31.311Z,0.80
2017-07-17T13:17:58.850Z,0.93
2017-07-17T13:20:26.385Z,0.87
2017-07-17T13:22:53.926Z,0.90
2017-07-17T13:25:21.476Z,0.80
2017-07-17T13:27:49.001Z,0.70
2017-07-17T13:30:16.553Z,0.80
2017-07-17T13:32:44.096Z,1.10
2017-07-17T13:35:11.635Z,0.73
2017-07-17T13:37:39.194Z,0.70
2017-07-17T13:40:07.484Z,0.90
2017-07-17T13:42:35.060Z,0.90
2017-07-17T13:45:02.584Z,1.10
2017-07-17T13:47:30.902Z,0.93
2017-07-17T13:49:58.454Z,0.77
2017-07-17T13:52:26.027Z,0.90
2017-07-17T13:54:53.578Z,0.80
2017-07-17T13:57:21.107Z,0.80
2017-07-17T13:59:49.410Z,1.00
2017-07-17T14:02:16.998Z,0.90
2017-07-17T14:04:44.547Z,0.90
2017-07-17T14:07:12.100Z,0.93
2017-07-17T14:09:39.640Z,0.90
2017-07-17T14:12:07.169Z,0.80
2017-07-17T14:14:34.732Z,1.00
2017-07-17T14:17:03.033Z,1.00
2017-07-17T14:19:30.594Z,1.10
2017-07-17T14:21:58.126Z,0.80
2017-07-17T14:24:26.403Z,1.00
2017-07-17T14:26:54.741Z,0.87
2017-07-17T14:29:22.264Z,1.00
2017-07-17T14:31:49.826Z,0.90
2017-07-17T14:34:17.379Z,0.97
2017-07-17T14:36:44.999Z,1.10
2017-07-17T14:39:12.529Z,1.30
2017-07-17T14:41:40.077Z,1.00
2017-07-17T14:44:07.604Z,1.20
2017-07-17T14:46:35.170Z,1.20
2017-07-17T14:49:02.688Z,1.10
2017-07-17T14:51:30.202Z,1.00
2017-07-17T14:53:57.756Z,1.07
2017-07-17T14:56:25.277Z,1.07
2017-07-17T14:58:52.819Z,1.10
2017-07-17T15:01:20.367Z,0.90
2017-07-17T15:03:47.911Z,1.07
2017-07-17T15:06:15.434Z,1.10
2017-07-17T15:08:42.961Z,1.10
2017-07-17T15:11:10.472Z,1.23
2017-07-17T15:13:38.034Z,1.30
2017-07-17T15:16:05.574Z,1.30
2017-07-17T15:18:33.115Z,1.33
2017-07-17T15:21:00.659Z,1.37
2017-07-17T15:23:28.176Z,1.13
2017-07-17T15:25:55.708Z,1.40
2017-07-17T15:28:23.281Z,1.20
2017-07-17T15:30:50.827Z,1.40
2017-07-17T15:33:18.365Z,1.23
2017-07-17T15:35:45.908Z,1.13
2017-07-17T15:38:13.432Z,1.37
2017-07-17T15:40:40.948Z,1.10
2017-07-17T15:43:08.476Z,1.10
2017-07-17T15:45:36.007Z,1.40
2017-07-17T15:48:03.560Z,1.10
2017-07-17T15:50:31.086Z,1.30
2017-07-17T15:52:58.612Z,1.20
2017-07-17T15:55:26.150Z,1.40
2017-07-17T15:57:53.698Z,1.20
2017-07-17T16:00:21.246Z,1.33
2017-07-17T16:02:48.795Z,1.33
2017-07-17T16:05:16.327Z,1.30
2017-07-17T16:07:43.899Z,1.50
2017-07-17T16:10:12.220Z,1.57
2017-07-17T16:12:39.754Z,1.67
2017-07-17T16:15:07.307Z,1.30
2017-07-17T16:17:34.869Z,1.40
2017-07-17T16:20:02.511Z,1.20
2017-07-17T16:22:30.816Z,1.20
2017-07-17T16:24:58.365Z,1.30
2017-07-17T16:27:26.652Z,1.33
2017-07-17T16:29:54.191Z,1.30
2017-07-17T16:32:21.732Z,1.40
2017-07-17T16:34:49.291Z,1.40
2017-07-17T16:37:16.836Z,1.93
2017-07-17T16:39:44.442Z,1.57
2017-07-17T16:42:11.980Z,1.47
2017-07-17T16:44:39.510Z,1.40
2017-07-17T16:47:07.063Z,1.60
2017-07-17T16:49:34.597Z,1.67
2017-07-17T16:52:02.138Z,1.40
2017-07-17T16:54:29.667Z,1.50
2017-07-17T16:56:57.231Z,1.30
2017-07-17T16:59:24.762Z,1.50
2017-07-17T17:01:52.320Z,1.67
2017-07-17T17:04:19.847Z,1.50
2017-07-17T17:06:47.384Z,1.70
2017-07-17T17:09:14.909Z,1.60
2017-07-17T17:11:42.467Z,1.40
2017-07-17T17:14:10.025Z,1.40
2017-07-17T17:16:37.587Z,1.50
2017-07-17T17:19:05.132Z,1.30
2017-07-17T17:21:32.677Z,1.50
2017-07-17T17:24:00.235Z,1.53
2017-07-17T17:26:27.807Z,1.23
2017-07-17T17:28:55.724Z,1.20
2017-07-17T17:31:24.036Z,1.10
2017-07-17T17:33:51.594Z,1.63
2017-07-17T17:36:19.185Z,1.63
2017-07-17T17:38:46.774Z,1.87
2017-07-17T17:41:14.308Z,1.10
2017-07-17T17:43:41.828Z,1.47
2017-07-17T17:46:09.377Z,1.20
2017-07-17T17:48:36.988Z,1.30
2017-07-17T17:51:04.569Z,1.23
2017-07-17T17:53:32.156Z,1.33
2017-07-17T17:55:59.712Z,1.93
2017-07-17T17:58:27.275Z,1.40
2017-07-17T18:00:54.997Z,1.40
2017-07-17T18:03:22.540Z,1.50
2017-07-17T18:05:50.111Z,1.50
2017-07-17T18:08:17.645Z,1.47
2017-07-17T18:10:45.208Z,1.30
2017-07-17T18:13:12.808Z,1.33
2017-07-17T18:15:40.407Z,1.67
2017-07-17T18:18:08.072Z,1.50
2017-07-17T18:20:35.762Z,1.53
2017-07-17T18:23:03.497Z,1.50
2017-07-17T18:25:31.097Z,1.17
2017-07-17T18:27:58.657Z,1.30
2017-07-17T18:30:26.223Z,1.53
2017-07-17T18:32:53.799Z,1.40
2017-07-17T18:35:21.353Z,1.57
2017-07-17T18:37:48.888Z,1.40
2017-07-17T18:40:16.421Z,1.63
2017-07-17T18:42:43.961Z,2.20
2017-07-17T18:45:11.490Z,1.90
2017-07-17T18:47:39.016Z,1.77
2017-07-17T18:50:06.562Z,1.77
2017-07-17T18:52:34.081Z,1.80
2017-07-17T18:55:01.609Z,1.83
2017-07-17T18:57:29.139Z,2.47
2017-07-17T18:59:56.690Z,1.53
2017-07-17T19:02:24.210Z,1.60
2017-07-17T19:04:51.771Z,1.30
2017-07-17T19:07:19.293Z,1.70
2017-07-17T19:09:46.845Z,1.97
2017-07-17T19:12:14.379Z,1.67
2017-07-17T19:14:41.913Z,1.57
2017-07-17T19:17:09.451Z,1.97
2017-07-17T19:19:36.968Z,1.73
2017-07-17T19:22:04.529Z,2.03
2017-07-17T19:24:32.107Z,1.70
2017-07-17T19:26:59.671Z,1.70
2017-07-17T19:29:27.208Z,1.50
2017-07-17T19:31:54.815Z,1.70
2017-07-17T19:34:22.349Z,1.40
2017-07-17T19:36:49.908Z,1.50
2017-07-17T19:39:17.464Z,1.67
2017-07-17T19:41:45.005Z,1.37
2017-07-17T19:44:12.571Z,1.67
2017-07-17T19:46:40.115Z,1.37
2017-07-17T19:49:07.672Z,1.80
2017-07-17T19:51:35.232Z,1.67
2017-07-17T19:54:02.799Z,2.13
2017-07-17T19:56:30.329Z,2.20
2017-07-17T19:58:58.965Z,1.50
2017-07-17T20:01:26.483Z,1.77
2017-07-17T20:03:54.077Z,1.40
2017-07-17T20:06:21.653Z,1.40
2017-07-17T20:08:49.230Z,1.60
2017-07-17T20:11:16.748Z,1.90
2017-07-17T20:13:44.288Z,1.80
2017-07-17T20:16:11.848Z,1.60
2017-07-17T20:18:39.420Z,1.87
2017-07-17T20:21:06.968Z,2.00
2017-07-17T20:23:34.506Z,2.30
2017-07-17T20:26:02.052Z,1.90
2017-07-17T20:28:29.578Z,1.90
2017-07-17T20:30:57.165Z,1.83
2017-07-17T20:33:24.732Z,2.00
2017-07-17T20:35:52.267Z,1.40
2017-07-17T20:38:19.895Z,1.90
2017-07-17T20:40:47.427Z,1.77
2017-07-17T20:43:15.775Z,2.07
2017-07-17T20:45:43.296Z,2.17
2017-07-17T20:48:10.845Z,2.27
2017-07-17T20:50:38.679Z,2.47
2017-07-17T20:53:07.016Z,1.80
2017-07-17T20:55:34.537Z,2.07
2017-07-17T20:58:02.101Z,2.40
2017-07-17T21:00:29.685Z,2.37
2017-07-17T21:02:57.217Z,2.40
2017-07-17T21:05:24.772Z,2.73
2017-07-17T21:07:52.307Z,2.73
2017-07-17T21:10:19.850Z,2.13
2017-07-17T21:12:47.365Z,2.00
2017-07-17T21:15:14.935Z,2.73
2017-07-17T21:17:42.460Z,2.03
2017-07-17T21:20:10.045Z,2.20
2017-07-17T21:22:37.578Z,2.27
2017-07-17T21:25:05.136Z,2.33
2017-07-17T21:27:32.683Z,2.33
2017-07-17T21:30:00.292Z,2.17
2017-07-17T21:32:28.084Z,2.90
2017-07-17T21:34:56.395Z,2.57
2017-07-17T21:37:24.719Z,2.50
2017-07-17T21:39:52.256Z,2.30
2017-07-17T21:42:19.805Z,2.80
2017-07-17T21:44:47.317Z,2.87
2017-07-17T21:47:14.872Z,3.57
2017-07-17T21:49:42.387Z,3.40
2017-07-17T21:52:09.933Z,3.50
2017-07-17T21:54:37.500Z,3.97
2017-07-17T21:57:05.035Z,3.80
2017-07-17T21:59:32.580Z,3.97
2017-07-17T22:02:00.107Z,3.77
2017-07-17T22:04:27.655Z,3.93
2017-07-17T22:06:55.185Z,3.97
2017-07-17T22:09:22.722Z,4.30
2017-07-17T22:11:50.268Z,4.07
2017-07-17T22:14:17.813Z,3.80
2017-07-17T22:16:45.352Z,3.30
2017-07-17T22:19:12.922Z,4.87
2017-07-17T22:21:40.472Z,3.90
2017-07-17T22:24:08.034Z,4.13
2017-07-17T22:26:35.616Z,4.07
2017-07-17T22:29:03.140Z,3.63
2017-07-17T22:31:30.676Z,3.60
2017-07-17T22:33:58.199Z,3.63
2017-07-17T22:36:25.755Z,3.00
2017-07-17T22:38:53.282Z,2.90
2017-07-17T22:41:20.844Z,3.10
2017-07-17T22:43:48.383Z,3.20
2017-07-17T22:46:16.852Z,2.93
2017-07-17T22:48:45.145Z,2.90
2017-07-17T22:51:12.694Z,3.03
2017-07-17T22:53:40.205Z,3.40
2017-07-17T22:56:07.758Z,3.00
2017-07-17T22:58:35.278Z,2.50
2017-07-17T23:01:02.812Z,2.73
2017-07-17T23:03:30.357Z,2.43
2017-07-17T23:05:57.862Z,2.60
2017-07-17T23:08:25.410Z,2.43
2017-07-17T23:10:52.941Z,2.60
2017-07-17T23:13:20.494Z,2.87
2017-07-17T23:15:48.057Z,2.70
2017-07-17T23:18:15.607Z,2.80
2017-07-17T23:20:43.137Z,2.57
2017-07-17T23:23:10.693Z,2.50
2017-07-17T23:25:38.212Z,2.33
2017-07-17T23:28:05.732Z,2.70
2017-07-17T23:30:33.271Z,2.17
2017-07-17T23:33:00.788Z,2.30
2017-07-17T23:35:28.342Z,2.50
2017-07-17T23:37:55.853Z,2.97
2017-07-17T23:40:23.405Z,2.60
2017-07-17T23:42:50.925Z,2.70
2017-07-17T23:45:18.509Z,2.47
2017-07-17T23:47:46.021Z,2.27
2017-07-17T23:50:13.616Z,2.27
2017-07-17T23:52:41.937Z,2.00
2017-07-17T23:55:09.457Z,2.37
2017-07-17T23:57:37.015Z,1.97
